KBYY

Bay City Regional Airport

Bay City, Texas, USA
METAR KBYY 220215Z AUTO 08005KT 10SM SCT019 SCT026 24/22 A2994 RMK AO2 T02470223
Observed Flight Rules
May-22 @ 02:15 UTC (24 minutes ago) Visual Flight Rules
Wind Visibility Clouds
80° at 5 knots 10 miles
  • Scattered at 1,900' AGL
  • Scattered at 2,600' AGL
Temperatures Readings
Current 25°C / 77°F
Dewpoint 22°C / 72°F
Humidity 83%
Altimeter 29.94" Hg
Pressure 1014 hPa
Elevation 14
METAR KBYY 220215Z AUTO 08005KT 10SM SCT019 SCT026 24/22 A2994 RMK AO2 T02470223
Observed Flight Rules
May-22 @ 02:15 UTC
(24 minutes ago)
VFR
Wind Visibility
80° at 5 knots 10 miles
Clouds
  • Scattered at 1,900' AGL
  • Scattered at 2,600' AGL
Temperature Dewpoint
25°C / 77°F 22°C / 72°F
Humidity Altimeter Pressure
83% 29.94" Hg 1014 hPa